createdAt,value
2022-10-31T00:00:06.015Z,67.8
2022-10-31T00:20:05.995Z,67.8
2022-10-31T00:40:05.969Z,67.7
2022-10-31T01:00:05.897Z,67.6
2022-10-31T01:20:05.912Z,67.5
2022-10-31T01:40:05.835Z,67.4
2022-10-31T02:00:05.840Z,67.3
2022-10-31T02:20:05.842Z,67.2
2022-10-31T02:40:05.793Z,67.1
2022-10-31T03:00:05.776Z,67.0
2022-10-31T03:20:05.728Z,66.9
2022-10-31T03:40:05.738Z,66.9
2022-10-31T04:00:05.687Z,66.8
2022-10-31T04:20:05.858Z,66.7
2022-10-31T04:40:05.667Z,66.7
2022-10-31T05:00:05.607Z,66.5
2022-10-31T05:20:05.584Z,66.4
2022-10-31T05:40:05.544Z,66.3
2022-10-31T06:00:05.579Z,66.2
2022-10-31T06:20:05.699Z,65.8
2022-10-31T06:40:05.477Z,65.8
2022-10-31T07:00:05.523Z,65.5
2022-10-31T07:20:05.524Z,65.7
2022-10-31T07:40:05.420Z,65.8
2022-10-31T08:00:05.444Z,65.5
2022-10-31T08:20:05.367Z,65.7
2022-10-31T08:40:05.383Z,65.9
2022-10-31T09:00:05.331Z,65.9
2022-10-31T09:20:05.356Z,66.0
2022-10-31T09:40:05.264Z,63.1
2022-10-31T10:00:05.384Z,64.0
2022-10-31T10:20:05.196Z,64.8
2022-10-31T10:40:05.177Z,65.3
2022-10-31T11:00:05.177Z,65.5
2022-10-31T11:20:05.296Z,65.7
2022-10-31T11:40:05.225Z,65.9
2022-10-31T12:00:05.152Z,66.0
2022-10-31T12:20:05.112Z,66.1
2022-10-31T12:40:05.144Z,66.2
2022-10-31T13:00:05.089Z,66.3
2022-10-31T13:20:04.997Z,66.4
2022-10-31T13:40:04.951Z,66.5
2022-10-31T14:00:04.955Z,66.6
2022-10-31T14:20:04.941Z,66.7
2022-10-31T14:40:04.919Z,66.7
2022-10-31T15:00:04.873Z,66.8
2022-10-31T15:20:04.860Z,66.9
2022-10-31T15:40:04.881Z,66.9
2022-10-31T16:00:04.795Z,66.9
2022-10-31T16:20:04.778Z,67.0
2022-10-31T16:40:04.756Z,67.1
2022-10-31T17:00:04.746Z,67.1
2022-10-31T17:20:04.687Z,67.2
2022-10-31T17:40:04.715Z,67.2
2022-10-31T18:00:04.747Z,67.2
2022-10-31T18:20:04.639Z,67.3
2022-10-31T18:40:04.620Z,67.3
2022-10-31T19:00:04.651Z,67.3
2022-10-31T19:20:04.574Z,67.3
2022-10-31T19:40:04.545Z,67.3
2022-10-31T20:00:04.488Z,67.3
2022-10-31T20:20:04.502Z,67.3
2022-10-31T20:40:04.442Z,67.3
2022-10-31T21:00:04.485Z,67.2
2022-10-31T21:20:04.413Z,67.2
2022-10-31T21:40:04.383Z,67.1
2022-10-31T22:00:04.373Z,67.1
2022-10-31T22:20:04.349Z,67.1
2022-10-31T22:40:04.311Z,67.1
2022-10-31T23:00:04.329Z,67.1
2022-10-31T23:20:04.291Z,67.1
2022-10-31T23:40:04.288Z,67.1
